createdAt,value
2022-09-17T00:01:43.548Z,100.00
2022-09-17T00:06:46.922Z,100.00
2022-09-17T00:11:51.830Z,100.00
2022-09-17T00:16:59.950Z,100.00
2022-09-17T00:22:05.416Z,100.00
2022-09-17T00:27:10.373Z,100.00
2022-09-17T00:32:13.876Z,100.00
2022-09-17T00:37:17.452Z,100.00
2022-09-17T00:42:23.408Z,100.00
2022-09-17T00:47:31.830Z,100.00
2022-09-17T00:52:41.393Z,100.00
2022-09-17T00:57:47.546Z,100.00
2022-09-17T01:02:51.190Z,100.00
2022-09-17T01:08:03.663Z,100.00
2022-09-17T01:13:18.497Z,100.00
2022-09-17T01:18:35.492Z,100.00
2022-09-17T01:24:12.156Z,100.00
2022-09-17T01:29:29.693Z,100.00
2022-09-17T01:34:42.236Z,100.00
2022-09-17T01:39:53.180Z,100.00
2022-09-17T01:45:01.648Z,100.00
2022-09-17T01:50:12.667Z,100.00
2022-09-17T01:55:19.988Z,100.00
2022-09-17T02:00:24.984Z,100.00
2022-09-17T02:05:33.758Z,100.00
2022-09-17T02:10:42.011Z,100.00
2022-09-17T02:15:53.540Z,100.00
2022-09-17T02:21:08.451Z,100.00
2022-09-17T02:26:16.327Z,100.00
2022-09-17T02:31:19.988Z,100.00
2022-09-17T02:36:25.539Z,100.00
2022-09-17T02:41:41.726Z,100.00
2022-09-17T02:47:08.060Z,100.00
2022-09-17T02:52:20.392Z,100.00
2022-09-17T02:57:30.997Z,100.00
2022-09-17T03:02:39.561Z,100.00
2022-09-17T03:07:44.642Z,100.00
2022-09-17T03:12:48.378Z,100.00
2022-09-17T03:17:53.492Z,100.00
2022-09-17T03:22:58.612Z,100.00
2022-09-17T03:28:02.500Z,100.00
2022-09-17T03:33:06.130Z,100.00
2022-09-17T03:38:11.194Z,100.00
2022-09-17T03:43:14.772Z,100.00
2022-09-17T03:48:18.616Z,100.00
2022-09-17T03:53:23.670Z,100.00
2022-09-17T03:58:27.648Z,100.00
2022-09-17T04:03:32.089Z,100.00
2022-09-17T04:08:37.116Z,100.00
2022-09-17T04:13:40.676Z,100.00
2022-09-17T04:18:44.265Z,100.00
2022-09-17T04:23:49.322Z,100.00
2022-09-17T04:28:52.821Z,100.00
2022-09-17T04:33:56.525Z,100.00
2022-09-17T04:39:01.638Z,100.00
2022-09-17T04:44:05.308Z,100.00
2022-09-17T04:49:08.994Z,100.00
2022-09-17T04:54:14.706Z,100.00
2022-09-17T04:59:18.567Z,100.00
2022-09-17T05:04:22.132Z,100.00
2022-09-17T05:09:27.088Z,100.00
2022-09-17T05:14:30.799Z,100.00
2022-09-17T05:19:34.372Z,100.00
2022-09-17T05:24:39.910Z,100.00
2022-09-17T05:29:43.561Z,100.00
2022-09-17T05:34:47.217Z,100.00
2022-09-17T05:39:52.555Z,100.00
2022-09-17T05:44:56.244Z,100.00
2022-09-17T05:50:01.179Z,100.00
2022-09-17T05:55:07.176Z,100.00
2022-09-17T06:00:12.128Z,100.00
2022-09-17T06:05:19.708Z,100.00
2022-09-17T06:10:24.699Z,100.00
2022-09-17T06:15:29.105Z,100.00
2022-09-17T06:20:32.712Z,100.00
2022-09-17T06:25:37.784Z,100.00
2022-09-17T06:30:41.379Z,100.00
2022-09-17T06:35:45.424Z,100.00
2022-09-17T06:40:53.535Z,100.00
2022-09-17T06:45:59.053Z,100.00
2022-09-17T06:51:04.454Z,100.00
2022-09-17T06:56:10.397Z,100.00
2022-09-17T07:01:15.212Z,100.00
2022-09-17T07:06:18.815Z,100.00
2022-09-17T07:11:24.026Z,100.00
2022-09-17T07:16:28.257Z,100.00
2022-09-17T07:21:32.278Z,100.00
2022-09-17T07:26:37.389Z,100.00
2022-09-17T07:31:41.307Z,100.00
2022-09-17T07:36:45.511Z,100.00
2022-09-17T07:41:51.306Z,100.00
2022-09-17T07:46:55.273Z,100.00
2022-09-17T07:52:00.040Z,100.00
2022-09-17T07:57:05.726Z,100.00
2022-09-17T08:02:13.278Z,98.02
2022-09-17T08:07:16.846Z,91.07
2022-09-17T08:12:22.861Z,90.47
2022-09-17T08:17:26.419Z,88.42
2022-09-17T08:22:31.818Z,92.11
2022-09-17T08:27:39.199Z,92.82
2022-09-17T08:32:43.162Z,90.80
2022-09-17T08:37:47.568Z,87.82
2022-09-17T08:42:59.241Z,87.56
2022-09-17T08:48:05.159Z,90.05
2022-09-17T08:53:32.339Z,90.63
2022-09-17T08:58:48.050Z,85.48
2022-09-17T09:04:10.319Z,80.80
2022-09-17T09:09:17.598Z,78.98
2022-09-17T09:14:26.852Z,79.98
2022-09-17T09:19:33.777Z,76.63
2022-09-17T09:24:43.181Z,76.31
2022-09-17T09:29:58.801Z,68.86
2022-09-17T09:35:04.901Z,74.70
2022-09-17T09:40:24.205Z,71.85
2022-09-17T09:45:43.347Z,70.82
2022-09-17T09:51:07.555Z,71.68
2022-09-17T09:56:29.450Z,69.81
2022-09-17T10:01:39.870Z,66.01
2022-09-17T10:06:43.653Z,64.31
2022-09-17T10:12:01.677Z,71.20
2022-09-17T10:17:21.788Z,70.06
2022-09-17T10:22:30.269Z,69.89
2022-09-17T10:27:36.917Z,72.28
2022-09-17T10:32:42.200Z,69.89
2022-09-17T10:37:48.222Z,75.70
2022-09-17T10:43:14.260Z,70.83
2022-09-17T10:48:22.114Z,78.83
2022-09-17T10:53:27.960Z,80.40
2022-09-17T10:58:45.288Z,85.52
2022-09-17T11:04:16.391Z,70.16
2022-09-17T11:09:36.504Z,75.12
2022-09-17T11:14:51.845Z,71.44
2022-09-17T11:20:02.347Z,74.94
2022-09-17T11:25:25.409Z,76.16
2022-09-17T11:30:34.436Z,100.00
2022-09-17T11:35:46.578Z,100.00
2022-09-17T11:40:54.609Z,100.00
2022-09-17T11:46:04.573Z,100.00
2022-09-17T11:51:28.352Z,98.57
2022-09-17T11:56:37.214Z,94.68
2022-09-17T12:01:48.031Z,98.21
2022-09-17T12:06:59.289Z,98.52
2022-09-17T12:12:08.344Z,89.54
2022-09-17T12:17:16.580Z,92.09
2022-09-17T12:22:25.103Z,88.93
2022-09-17T12:27:39.235Z,89.19
2022-09-17T12:33:03.244Z,86.67
2022-09-17T12:38:23.197Z,80.11
2022-09-17T12:43:44.977Z,91.35
2022-09-17T12:49:20.899Z,93.19
2022-09-17T12:54:52.743Z,96.87
2022-09-17T13:00:06.765Z,86.92
2022-09-17T13:05:35.722Z,80.77
2022-09-17T13:10:59.607Z,74.21
2022-09-17T13:16:15.549Z,75.61
2022-09-17T13:21:26.960Z,72.70
2022-09-17T13:26:39.693Z,72.13
2022-09-17T13:31:51.083Z,78.00
2022-09-17T13:36:55.496Z,76.51
2022-09-17T13:42:06.027Z,77.14
2022-09-17T13:47:22.884Z,85.79
2022-09-17T13:52:45.947Z,86.25
2022-09-17T13:57:52.366Z,83.61
2022-09-17T14:02:56.004Z,82.87
2022-09-17T14:08:15.235Z,83.77
2022-09-17T14:13:46.262Z,77.08
2022-09-17T14:19:03.678Z,78.71
2022-09-17T14:24:21.900Z,78.96
2022-09-17T14:29:51.328Z,78.18
2022-09-17T14:34:57.267Z,78.77
2022-09-17T14:40:01.043Z,88.78
2022-09-17T14:45:15.110Z,96.79
2022-09-17T14:50:24.617Z,97.57
2022-09-17T14:55:32.326Z,100.00
2022-09-17T15:00:37.949Z,100.00
2022-09-17T15:05:50.945Z,100.00
2022-09-17T15:10:56.383Z,94.06
2022-09-17T15:16:03.286Z,95.67
2022-09-17T15:21:24.520Z,92.93
2022-09-17T15:26:32.134Z,100.00
2022-09-17T15:31:37.484Z,94.35
2022-09-17T15:37:02.527Z,96.78
2022-09-17T15:42:06.585Z,93.99
2022-09-17T15:47:52.910Z,90.10
2022-09-17T15:53:14.317Z,95.96
2022-09-17T15:58:27.023Z,91.24
2022-09-17T16:04:18.635Z,86.32
2022-09-17T16:09:43.762Z,88.83
2022-09-17T16:14:50.098Z,87.33
2022-09-17T16:19:56.182Z,91.87
2022-09-17T16:25:01.841Z,90.19
2022-09-17T16:30:09.477Z,98.57
2022-09-17T16:35:17.528Z,93.43
2022-09-17T16:40:23.064Z,90.09
2022-09-17T16:45:28.958Z,93.30
2022-09-17T16:50:35.941Z,93.17
2022-09-17T16:55:40.113Z,98.63
2022-09-17T17:00:44.406Z,100.00
2022-09-17T17:05:49.489Z,100.00
2022-09-17T17:10:53.395Z,100.00
2022-09-17T17:15:57.065Z,100.00
2022-09-17T17:21:08.045Z,100.00
2022-09-17T17:26:19.739Z,100.00
2022-09-17T17:31:23.415Z,100.00
2022-09-17T17:36:28.390Z,100.00
2022-09-17T17:41:32.009Z,100.00
2022-09-17T17:46:35.787Z,100.00
2022-09-17T17:51:40.779Z,100.00
2022-09-17T17:56:44.399Z,100.00
2022-09-17T18:01:48.261Z,100.00
2022-09-17T18:06:54.627Z,100.00
2022-09-17T18:11:58.195Z,100.00
2022-09-17T18:17:02.012Z,100.00
2022-09-17T18:22:07.150Z,100.00
2022-09-17T18:27:10.823Z,100.00
2022-09-17T18:32:14.518Z,100.00
2022-09-17T18:37:19.473Z,100.00
2022-09-17T18:42:23.479Z,100.00
2022-09-17T18:47:27.602Z,100.00
2022-09-17T18:52:32.964Z,100.00
2022-09-17T18:57:37.037Z,100.00
2022-09-17T19:02:41.011Z,100.00
2022-09-17T19:07:52.882Z,100.00
2022-09-17T19:13:03.346Z,100.00
2022-09-17T19:18:27.941Z,100.00
2022-09-17T19:23:54.915Z,100.00
2022-09-17T19:29:20.196Z,100.00
2022-09-17T19:34:45.406Z,100.00
2022-09-17T19:40:13.705Z,100.00
2022-09-17T19:45:39.308Z,100.00
2022-09-17T19:51:04.918Z,100.00
2022-09-17T19:56:31.353Z,100.00
2022-09-17T20:01:56.147Z,100.00
2022-09-17T20:07:20.544Z,100.00
2022-09-17T20:12:46.260Z,100.00
2022-09-17T20:18:10.510Z,100.00
2022-09-17T20:23:35.251Z,100.00
2022-09-17T20:28:40.967Z,100.00
2022-09-17T20:33:45.844Z,100.00
2022-09-17T20:39:22.495Z,100.00
2022-09-17T20:44:18.035Z,100.00
2022-09-17T20:49:21.643Z,100.00
2022-09-17T20:54:26.145Z,100.00
2022-09-17T20:59:51.111Z,100.00
2022-09-17T21:04:56.248Z,100.00
2022-09-17T21:10:01.237Z,100.00
2022-09-17T21:15:10.255Z,100.00
2022-09-17T21:20:38.529Z,100.00
2022-09-17T21:26:04.816Z,100.00
2022-09-17T21:31:12.673Z,100.00
2022-09-17T21:36:18.717Z,100.00
2022-09-17T21:41:23.912Z,100.00
2022-09-17T21:46:30.619Z,100.00
2022-09-17T21:51:37.437Z,100.00
2022-09-17T21:56:41.059Z,100.00
2022-09-17T22:01:47.353Z,100.00
2022-09-17T22:06:51.401Z,100.00
2022-09-17T22:11:54.866Z,100.00
2022-09-17T22:16:59.902Z,100.00
2022-09-17T22:22:03.650Z,100.00
2022-09-17T22:27:07.099Z,100.00
2022-09-17T22:32:12.165Z,100.00
2022-09-17T22:37:16.898Z,100.00
2022-09-17T22:42:20.455Z,100.00
2022-09-17T22:47:25.584Z,100.00
2022-09-17T22:52:29.796Z,100.00
2022-09-17T22:57:33.264Z,100.00
2022-09-17T23:02:39.097Z,100.00
2022-09-17T23:07:42.766Z,100.00
2022-09-17T23:12:46.662Z,100.00
2022-09-17T23:17:52.109Z,100.00
2022-09-17T23:22:55.656Z,100.00
2022-09-17T23:28:00.152Z,100.00
2022-09-17T23:33:05.142Z,100.00
2022-09-17T23:38:08.643Z,100.00
2022-09-17T23:43:12.417Z,100.00
2022-09-17T23:48:17.605Z,100.00
2022-09-17T23:53:21.091Z,100.00
2022-09-17T23:58:25.324Z,100.00
